createdAt,value
2023-03-06T00:00:17.730Z,20
2023-03-06T00:05:20.526Z,20
2023-03-06T00:10:14.344Z,20
2023-03-06T00:15:19.099Z,20
2023-03-06T00:20:18.087Z,20
2023-03-06T00:25:22.030Z,20
2023-03-06T00:30:13.969Z,19.9
2023-03-06T00:35:14.382Z,19.9
2023-03-06T00:40:16.164Z,19.9
2023-03-06T00:45:16.309Z,19.9
2023-03-06T00:50:14.083Z,19.9
2023-03-06T00:55:17.929Z,19.9
2023-03-06T01:00:18.157Z,19.9
2023-03-06T01:05:16.156Z,19.8
2023-03-06T01:10:22.005Z,19.8
2023-03-06T01:15:13.869Z,19.8
2023-03-06T01:20:15.781Z,19.8
2023-03-06T01:25:19.561Z,19.8
2023-03-06T01:30:18.493Z,19.8
2023-03-06T01:35:18.285Z,19.8
2023-03-06T01:40:14.238Z,19.8
2023-03-06T01:45:14.139Z,19.8
2023-03-06T01:50:13.925Z,19.8
2023-03-06T01:55:17.747Z,19.8
2023-03-06T02:00:15.775Z,19.8
2023-03-06T02:05:21.777Z,19.8
2023-03-06T02:10:17.626Z,19.7
2023-03-06T02:15:18.502Z,19.7
2023-03-06T02:20:18.416Z,19.7
2023-03-06T02:25:16.186Z,19.7
2023-03-06T02:30:18.083Z,19.7
2023-03-06T02:35:15.963Z,19.7
2023-03-06T02:40:17.746Z,19.7
2023-03-06T02:45:19.721Z,19.7
2023-03-06T02:50:18.547Z,19.7
2023-03-06T02:55:20.304Z,19.7
2023-03-06T03:00:16.196Z,19.7
2023-03-06T03:05:21.971Z,19.6
2023-03-06T03:10:17.751Z,19.6
2023-03-06T03:15:17.642Z,19.6
2023-03-06T03:20:16.539Z,19.6
2023-03-06T03:25:22.357Z,19.6
2023-03-06T03:30:20.111Z,19.6
2023-03-06T03:35:18.018Z,19.6
2023-03-06T03:40:15.925Z,19.6
2023-03-06T03:45:15.770Z,19.6
2023-03-06T03:50:15.586Z,19.6
2023-03-06T03:55:16.312Z,19.6
2023-03-06T04:00:18.342Z,19.6
2023-03-06T04:05:18.629Z,19.6
2023-03-06T04:10:20.505Z,19.5
2023-03-06T04:15:16.372Z,19.5
2023-03-06T04:20:16.438Z,19.5
2023-03-06T04:25:18.453Z,19.5
2023-03-06T04:30:18.249Z,19.5
2023-03-06T04:35:22.057Z,19.5
2023-03-06T04:40:20.201Z,19.5
2023-03-06T04:45:22.127Z,19.5
2023-03-06T04:50:17.953Z,19.5
2023-03-06T04:55:17.739Z,19.5
2023-03-06T05:00:15.883Z,19.4
2023-03-06T05:05:18.000Z,19.4
2023-03-06T05:10:17.884Z,19.4
2023-03-06T05:15:14.203Z,19.4
2023-03-06T05:20:18.214Z,19.5
2023-03-06T05:25:16.455Z,19.5
2023-03-06T05:30:14.422Z,19.6
2023-03-06T05:35:16.282Z,19.6
2023-03-06T05:40:22.223Z,19.6
2023-03-06T05:45:14.095Z,19.6
2023-03-06T05:50:17.825Z,19.6
2023-03-06T05:55:15.563Z,19.6
2023-03-06T06:00:16.377Z,19.6
2023-03-06T06:05:15.977Z,19.6
2023-03-06T06:10:23.430Z,19.7
2023-03-06T06:15:20.290Z,19.7
2023-03-06T06:20:18.314Z,19.7
2023-03-06T06:25:18.283Z,19.8
2023-03-06T06:30:16.478Z,19.8
2023-03-06T06:35:14.372Z,19.8
2023-03-06T06:40:16.078Z,19.8
2023-03-06T06:45:22.194Z,19.8
2023-03-06T06:50:22.034Z,19.8
2023-03-06T06:55:17.826Z,19.8
2023-03-06T07:00:13.851Z,19.8
2023-03-06T07:05:20.834Z,19.8
2023-03-06T07:10:16.202Z,19.8
2023-03-06T07:15:16.137Z,19.8
2023-03-06T07:20:18.249Z,19.8
2023-03-06T07:25:18.025Z,19.8
2023-03-06T07:30:17.844Z,19.8
2023-03-06T07:35:34.352Z,19.8
2023-03-06T07:40:16.328Z,19.8
2023-03-06T07:45:16.130Z,19.7
2023-03-06T07:50:17.902Z,19.8
2023-03-06T07:55:15.634Z,19.8
2023-03-06T08:00:16.582Z,19.8
2023-03-06T08:05:16.366Z,19.8
2023-03-06T08:10:14.269Z,19.8
2023-03-06T08:15:14.460Z,19.8
2023-03-06T08:20:18.417Z,19.8
2023-03-06T08:25:14.177Z,19.8
2023-03-06T08:30:22.177Z,19.8
2023-03-06T08:35:21.979Z,19.8
2023-03-06T08:40:15.873Z,19.8
2023-03-06T08:45:15.650Z,19.8
2023-03-06T08:50:14.460Z,19.8
2023-03-06T08:55:15.114Z,19.8
2023-03-06T09:00:14.165Z,19.8
2023-03-06T09:05:24.315Z,19.8
2023-03-06T09:10:20.154Z,19.8
2023-03-06T09:15:16.149Z,19.8
2023-03-06T09:20:13.997Z,19.8
2023-03-06T09:25:21.781Z,19.8
2023-03-06T09:30:19.663Z,19.8
2023-03-06T09:35:18.488Z,19.8
2023-03-06T09:40:16.554Z,19.8
2023-03-06T09:45:20.528Z,19.8
2023-03-06T09:50:18.274Z,19.8
2023-03-06T09:55:16.124Z,19.9
2023-03-06T10:00:22.296Z,19.9
2023-03-06T10:05:20.815Z,19.9
2023-03-06T10:10:17.645Z,19.9
2023-03-06T10:15:16.481Z,19.9
2023-03-06T10:20:22.525Z,19.9
2023-03-06T10:25:13.588Z,19.9
2023-03-06T10:30:19.655Z,19.9
2023-03-06T10:35:20.714Z,19.9
2023-03-06T10:40:26.053Z,19.9
2023-03-06T10:45:14.454Z,19.9
2023-03-06T10:50:18.291Z,19.9
2023-03-06T10:55:16.150Z,19.9
2023-03-06T11:00:14.129Z,20
2023-03-06T11:05:16.106Z,20
2023-03-06T11:10:14.017Z,20
2023-03-06T11:15:35.051Z,20
2023-03-06T11:20:14.669Z,20
2023-03-06T11:25:18.474Z,20
2023-03-06T11:30:14.669Z,20
2023-03-06T11:35:16.461Z,20.1
2023-03-06T11:40:18.390Z,20.1
2023-03-06T11:45:25.419Z,20.1
2023-03-06T11:50:18.230Z,20.1
2023-03-06T11:55:14.696Z,20.2
2023-03-06T12:00:21.776Z,20.2
2023-03-06T12:05:17.102Z,20.3
2023-03-06T12:15:15.973Z,20.3
2023-03-06T12:20:15.911Z,20.4
2023-03-06T12:25:14.201Z,20.4
2023-03-06T12:30:14.206Z,20.4
2023-03-06T12:35:25.805Z,20.4
2023-03-06T12:40:19.622Z,20.4
2023-03-06T12:45:15.584Z,20.4
2023-03-06T12:50:22.470Z,20.5
2023-03-06T12:55:19.854Z,20.5
2023-03-06T13:00:15.640Z,20.5
2023-03-06T13:05:15.640Z,20.5
2023-03-06T13:10:18.464Z,20.6
2023-03-06T13:15:16.357Z,20.6
2023-03-06T13:20:20.293Z,20.6
2023-03-06T13:25:20.306Z,20.6
2023-03-06T13:30:14.240Z,20.7
2023-03-06T13:35:22.096Z,20.7
2023-03-06T13:40:16.026Z,20.7
2023-03-06T13:45:20.227Z,20.8
2023-03-06T13:50:18.047Z,20.8
2023-03-06T13:55:19.782Z,20.8
2023-03-06T14:00:25.525Z,20.8
2023-03-06T14:05:20.081Z,20.8
2023-03-06T14:10:15.967Z,20.8
2023-03-06T14:15:13.869Z,20.8
2023-03-06T14:20:13.709Z,20.8
2023-03-06T14:25:14.530Z,20.8
2023-03-06T14:30:14.597Z,20.8
2023-03-06T14:35:24.428Z,20.7
2023-03-06T14:40:14.293Z,20.7
2023-03-06T14:45:14.089Z,20.7
2023-03-06T14:50:21.943Z,20.7
2023-03-06T14:55:27.794Z,20.7
2023-03-06T15:00:15.638Z,20.7
2023-03-06T15:05:18.284Z,20.6
2023-03-06T15:10:16.313Z,20.6
2023-03-06T15:15:18.112Z,20.6
2023-03-06T15:20:22.190Z,20.6
2023-03-06T15:25:15.878Z,20.6
2023-03-06T15:30:20.150Z,20.6
2023-03-06T15:35:18.011Z,20.6
2023-03-06T15:40:15.881Z,20.6
2023-03-06T15:45:19.703Z,20.5
2023-03-06T15:50:18.564Z,20.5
2023-03-06T15:55:22.355Z,20.5
2023-03-06T16:00:26.580Z,20.5
2023-03-06T16:05:18.098Z,20.4
2023-03-06T16:10:19.834Z,20.4
2023-03-06T16:15:27.714Z,20.4
2023-03-06T16:20:17.603Z,20.4
2023-03-06T16:25:16.395Z,20.4
2023-03-06T16:30:22.360Z,20.4
2023-03-06T16:35:18.407Z,20.4
2023-03-06T16:40:14.878Z,20.3
2023-03-06T16:45:15.754Z,20.3
2023-03-06T16:50:14.573Z,20.3
2023-03-06T16:55:16.545Z,20.3
2023-03-06T17:00:24.496Z,20.3
2023-03-06T17:05:14.608Z,20.3
2023-03-06T17:10:24.553Z,20.3
2023-03-06T17:15:16.476Z,20.3
2023-03-06T17:20:14.427Z,20.3
2023-03-06T17:25:16.257Z,20.3
2023-03-06T17:30:24.249Z,20.3
2023-03-06T17:35:16.186Z,20.3
2023-03-06T17:40:19.934Z,20.3
2023-03-06T17:45:15.832Z,20.3
2023-03-06T17:50:15.707Z,20.4
2023-03-06T17:55:24.646Z,20.4
2023-03-06T18:00:22.470Z,20.4
2023-03-06T18:05:20.325Z,20.5
2023-03-06T18:10:16.145Z,20.5
2023-03-06T18:15:15.944Z,20.6
2023-03-06T18:20:13.873Z,20.6
2023-03-06T18:25:17.618Z,20.6
2023-03-06T18:30:14.600Z,20.6
2023-03-06T18:35:22.859Z,20.6
2023-03-06T18:40:17.809Z,20.7
2023-03-06T18:45:15.668Z,20.7
2023-03-06T18:50:14.757Z,20.8
2023-03-06T18:55:17.536Z,20.8
2023-03-06T19:00:20.398Z,20.8
2023-03-06T19:05:18.167Z,20.7
2023-03-06T19:10:14.150Z,20.7
2023-03-06T19:15:16.203Z,20.7
2023-03-06T19:20:18.196Z,20.7
2023-03-06T19:25:17.629Z,20.7
2023-03-06T19:30:16.459Z,20.7
2023-03-06T19:35:15.415Z,20.7
2023-03-06T19:40:18.321Z,20.7
2023-03-06T19:45:24.272Z,20.7
2023-03-06T19:50:16.104Z,20.7
2023-03-06T19:55:17.862Z,20.7
2023-03-06T20:00:14.089Z,20.7
2023-03-06T20:05:16.643Z,20.7
2023-03-06T20:10:22.473Z,20.7
2023-03-06T20:15:18.701Z,20.7
2023-03-06T20:20:20.594Z,20.7
2023-03-06T20:25:28.472Z,20.7
2023-03-06T20:30:14.231Z,20.7
2023-03-06T20:35:15.983Z,20.8
2023-03-06T20:40:18.274Z,20.8
2023-03-06T20:45:16.226Z,20.8
2023-03-06T20:50:20.098Z,20.8
2023-03-06T20:55:17.827Z,20.8
2023-03-06T21:00:15.729Z,20.8
2023-03-06T21:05:17.150Z,20.8
2023-03-06T21:10:15.911Z,20.8
2023-03-06T21:15:23.786Z,20.8
2023-03-06T21:20:19.926Z,20.8
2023-03-06T21:25:17.634Z,20.7
2023-03-06T21:30:22.548Z,20.7
2023-03-06T21:35:18.345Z,20.6
2023-03-06T21:40:16.135Z,20.6
2023-03-06T21:50:18.738Z,20.5
2023-03-06T21:55:17.690Z,20.5
2023-03-06T22:00:16.619Z,20.5
2023-03-06T22:05:18.385Z,20.5
2023-03-06T22:10:22.221Z,20.4
2023-03-06T22:15:20.069Z,20.4
2023-03-06T22:20:17.884Z,20.4
2023-03-06T22:25:13.694Z,20.4
2023-03-06T22:30:14.653Z,20.4
2023-03-06T22:35:20.424Z,20.3
2023-03-06T22:40:14.233Z,20.3
2023-03-06T22:45:24.173Z,20.3
2023-03-06T22:50:13.821Z,20.3
2023-03-06T22:55:15.537Z,20.3
2023-03-06T23:00:18.255Z,20.3
2023-03-06T23:05:18.029Z,20.3
2023-03-06T23:10:13.797Z,20.2
2023-03-06T23:15:13.681Z,20.2
2023-03-06T23:20:16.482Z,20.2
2023-03-06T23:25:18.287Z,20.2
2023-03-06T23:30:16.110Z,20.2
2023-03-06T23:35:13.946Z,20.2
2023-03-06T23:40:15.768Z,20.1
2023-03-06T23:45:19.700Z,20.1
2023-03-06T23:50:22.454Z,20.1
2023-03-06T23:55:22.255Z,20.1
